sensor_id;sensor_type;location;lat;lon;timestamp;pressure;altitude;pressure_sealevel;temperature;humidity
48824;BME280;34640;53.590;10.054;2023-08-12T00:02:04;101341.16;;;19.92;100.00
48824;BME280;34640;53.590;10.054;2023-08-12T00:04:57;101342.94;;;19.93;100.00
48824;BME280;34640;53.590;10.054;2023-08-12T00:07:49;101328.81;;;19.92;100.00
48824;BME280;34640;53.590;10.054;2023-08-12T00:10:40;101326.13;;;19.91;100.00
48824;BME280;34640;53.590;10.054;2023-08-12T00:13:31;101327.03;;;19.91;100.00
48824;BME280;34640;53.590;10.054;2023-08-12T00:16:23;101328.78;;;19.91;100.00
48824;BME280;34640;53.590;10.054;2023-08-12T00:19:14;101332.28;;;19.90;100.00
48824;BME280;34640;53.590;10.054;2023-08-12T00:22:07;101334.94;;;19.90;100.00
48824;BME280;34640;53.590;10.054;2023-08-12T00:24:58;101334.78;;;19.85;100.00
48824;BME280;34640;53.590;10.054;2023-08-12T00:27:50;101320.53;;;19.80;100.00
48824;BME280;34640;53.590;10.054;2023-08-12T00:30:41;101326.72;;;19.80;100.00
48824;BME280;34640;53.590;10.054;2023-08-12T00:33:33;101322.28;;;19.79;100.00
48824;BME280;34640;53.590;10.054;2023-08-12T00:36:24;101316.09;;;19.79;100.00
48824;BME280;34640;53.590;10.054;2023-08-12T00:39:17;101318.66;;;19.76;100.00
48824;BME280;34640;53.590;10.054;2023-08-12T00:42:08;101320.41;;;19.75;100.00
48824;BME280;34640;53.590;10.054;2023-08-12T00:45:00;101312.34;;;19.72;100.00
48824;BME280;34640;53.590;10.054;2023-08-12T00:47:51;101308.75;;;19.70;100.00
48824;BME280;34640;53.590;10.054;2023-08-12T00:50:42;101314.94;;;19.71;100.00
48824;BME280;34640;53.590;10.054;2023-08-12T00:53:34;101311.41;;;19.70;100.00
48824;BME280;34640;53.590;10.054;2023-08-12T00:56:27;101305.25;;;19.71;100.00
48824;BME280;34640;53.590;10.054;2023-08-12T00:59:18;101314.00;;;19.69;100.00
48824;BME280;34640;53.590;10.054;2023-08-12T01:02:10;101310.38;;;19.65;100.00
48824;BME280;34640;53.590;10.054;2023-08-12T01:05:03;101313.00;;;19.65;100.00
48824;BME280;34640;53.590;10.054;2023-08-12T01:07:55;101309.47;;;19.65;100.00
48824;BME280;34640;53.590;10.054;2023-08-12T01:10:47;101303.28;;;19.64;100.00
48824;BME280;34640;53.590;10.054;2023-08-12T01:13:44;101299.78;;;19.65;100.00
48824;BME280;34640;53.590;10.054;2023-08-12T01:16:39;101303.38;;;19.67;100.00
48824;BME280;34640;53.590;10.054;2023-08-12T01:19:33;101297.19;;;19.67;100.00
48824;BME280;34640;53.590;10.054;2023-08-12T01:22:24;101293.63;;;19.65;100.00
48824;BME280;34640;53.590;10.054;2023-08-12T01:25:18;101288.28;;;19.63;100.00
48824;BME280;34640;53.590;10.054;2023-08-12T01:28:09;101283.91;;;19.64;100.00
48824;BME280;34640;53.590;10.054;2023-08-12T01:31:02;101290.94;;;19.63;100.00
48824;BME280;34640;53.590;10.054;2023-08-12T01:33:58;101288.19;;;19.60;100.00
48824;BME280;34640;53.590;10.054;2023-08-12T01:36:54;101285.56;;;19.60;100.00
48824;BME280;34640;53.590;10.054;2023-08-12T01:39:46;101282.88;;;19.59;100.00
48824;BME280;34640;53.590;10.054;2023-08-12T01:42:39;101280.25;;;19.60;100.00
48824;BME280;34640;53.590;10.054;2023-08-12T01:45:31;101276.78;;;19.61;100.00
48824;BME280;34640;53.590;10.054;2023-08-12T01:48:23;101269.78;;;19.63;100.00
48824;BME280;34640;53.590;10.054;2023-08-12T01:51:14;101265.56;;;19.70;100.00
48824;BME280;34640;53.590;10.054;2023-08-12T01:54:06;101264.63;;;19.68;100.00
48824;BME280;34640;53.590;10.054;2023-08-12T01:56:57;101269.16;;;19.72;100.00
48824;BME280;34640;53.590;10.054;2023-08-12T01:59:50;101270.78;;;19.67;100.00
48824;BME280;34640;53.590;10.054;2023-08-12T02:02:42;101258.38;;;19.64;100.00
48824;BME280;34640;53.590;10.054;2023-08-12T02:05:36;101254.78;;;19.62;100.00
48824;BME280;34640;53.590;10.054;2023-08-12T02:08:27;101259.84;;;19.55;100.00
48824;BME280;34640;53.590;10.054;2023-08-12T02:11:19;101266.72;;;19.51;100.00
48824;BME280;34640;53.590;10.054;2023-08-12T02:14:10;101261.34;;;19.48;100.00
48824;BME280;34640;53.590;10.054;2023-08-12T02:17:03;101265.78;;;19.49;100.00
48824;BME280;34640;53.590;10.054;2023-08-12T02:19:55;101248.16;;;19.49;100.00
48824;BME280;34640;53.590;10.054;2023-08-12T02:22:47;101242.00;;;19.49;100.00
48824;BME280;34640;53.590;10.054;2023-08-12T02:25:38;101243.75;;;19.48;100.00
48824;BME280;34640;53.590;10.054;2023-08-12T02:28:29;101250.78;;;19.48;100.00
48824;BME280;34640;53.590;10.054;2023-08-12T02:31:21;101238.31;;;19.44;100.00
48824;BME280;34640;53.590;10.054;2023-08-12T02:34:20;101242.94;;;19.51;100.00
48824;BME280;34640;53.590;10.054;2023-08-12T02:37:11;101249.75;;;19.43;100.00
48824;BME280;34640;53.590;10.054;2023-08-12T02:40:03;101252.09;;;19.34;100.00
48824;BME280;34640;53.590;10.054;2023-08-12T02:42:55;101242.25;;;19.30;100.00
48824;BME280;34640;53.590;10.054;2023-08-12T02:45:47;101242.63;;;19.40;100.00
48824;BME280;34640;53.590;10.054;2023-08-12T02:48:38;101238.31;;;19.44;100.00
48824;BME280;34640;53.590;10.054;2023-08-12T02:51:35;101242.56;;;19.39;100.00
48824;BME280;34640;53.590;10.054;2023-08-12T02:54:26;101239.75;;;19.33;100.00
48824;BME280;34640;53.590;10.054;2023-08-12T02:57:18;101241.25;;;19.26;100.00
48824;BME280;34640;53.590;10.054;2023-08-12T03:00:10;101243.81;;;19.23;100.00
48824;BME280;34640;53.590;10.054;2023-08-12T03:03:02;101250.69;;;19.18;100.00
48824;BME280;34640;53.590;10.054;2023-08-12T03:05:54;101239.25;;;19.17;100.00
48824;BME280;34640;53.590;10.054;2023-08-12T03:08:47;101245.47;;;19.19;100.00
48824;BME280;34640;53.590;10.054;2023-08-12T03:11:38;101242.81;;;19.19;100.00
48824;BME280;34640;53.590;10.054;2023-08-12T03:14:30;101236.66;;;19.19;100.00
48824;BME280;34640;53.590;10.054;2023-08-12T03:17:22;101228.72;;;19.19;100.00
48824;BME280;34640;53.590;10.054;2023-08-12T03:20:13;101233.16;;;19.20;100.00
48824;BME280;34640;53.590;10.054;2023-08-12T03:23:05;101226.97;;;19.19;100.00
48824;BME280;34640;53.590;10.054;2023-08-12T03:25:58;101221.69;;;19.19;100.00
48824;BME280;34640;53.590;10.054;2023-08-12T03:28:49;101223.41;;;19.17;100.00
48824;BME280;34640;53.590;10.054;2023-08-12T03:31:41;101232.25;;;19.19;100.00
48824;BME280;34640;53.590;10.054;2023-08-12T03:34:32;101223.59;;;19.23;100.00
48824;BME280;34640;53.590;10.054;2023-08-12T03:37:24;101213.69;;;19.16;100.00
48824;BME280;34640;53.590;10.054;2023-08-12T03:40:15;101195.94;;;19.12;100.00
48824;BME280;34640;53.590;10.054;2023-08-12T03:43:08;101201.22;;;19.12;100.00
48824;BME280;34640;53.590;10.054;2023-08-12T03:45:59;101202.97;;;19.12;100.00
48824;BME280;34640;53.590;10.054;2023-08-12T03:48:51;101204.59;;;19.08;100.00
48824;BME280;34640;53.590;10.054;2023-08-12T03:51:42;101209.63;;;19.01;100.00
48824;BME280;34640;53.590;10.054;2023-08-12T03:54:34;101209.53;;;18.98;100.00
48824;BME280;34640;53.590;10.054;2023-08-12T03:57:25;101216.47;;;18.94;100.00
48824;BME280;34640;53.590;10.054;2023-08-12T04:00:17;101217.28;;;18.91;100.00
48824;BME280;34640;53.590;10.054;2023-08-12T04:03:09;101208.41;;;18.89;100.00
48824;BME280;34640;53.590;10.054;2023-08-12T04:06:00;101205.00;;;18.93;100.00
48824;BME280;34640;53.590;10.054;2023-08-12T04:08:53;101202.56;;;19.00;100.00
48824;BME280;34640;53.590;10.054;2023-08-12T04:11:46;101209.81;;;19.07;100.00
48824;BME280;34640;53.590;10.054;2023-08-12T04:14:37;101209.06;;;19.09;100.00
48824;BME280;34640;53.590;10.054;2023-08-12T04:17:32;101202.75;;;19.06;100.00
48824;BME280;34640;53.590;10.054;2023-08-12T04:20:23;101206.00;;;18.97;100.00
48824;BME280;34640;53.590;10.054;2023-08-12T04:23:14;101199.63;;;18.90;100.00
48824;BME280;34640;53.590;10.054;2023-08-12T04:26:06;101191.53;;;18.86;100.00
48824;BME280;34640;53.590;10.054;2023-08-12T04:28:57;101199.59;;;18.89;100.00
48824;BME280;34640;53.590;10.054;2023-08-12T04:31:49;101204.03;;;18.90;100.00
48824;BME280;34640;53.590;10.054;2023-08-12T04:34:41;101198.69;;;18.88;100.00
48824;BME280;34640;53.590;10.054;2023-08-12T04:37:33;101207.50;;;18.89;100.00
48824;BME280;34640;53.590;10.054;2023-08-12T04:40:24;101201.38;;;18.90;100.00
48824;BME280;34640;53.590;10.054;2023-08-12T04:43:15;101200.59;;;18.92;100.00
48824;BME280;34640;53.590;10.054;2023-08-12T04:46:07;101214.59;;;18.90;100.00
48824;BME280;34640;53.590;10.054;2023-08-12T04:48:58;101220.56;;;18.86;100.00
48824;BME280;34640;53.590;10.054;2023-08-12T04:51:52;101215.28;;;18.86;100.00
48824;BME280;34640;53.590;10.054;2023-08-12T04:54:43;101208.41;;;18.89;100.00
48824;BME280;34640;53.590;10.054;2023-08-12T04:57:35;101213.69;;;18.89;100.00
48824;BME280;34640;53.590;10.054;2023-08-12T05:00:26;101204.88;;;18.89;100.00
48824;BME280;34640;53.590;10.054;2023-08-12T05:03:20;101208.34;;;18.88;100.00
48824;BME280;34640;53.590;10.054;2023-08-12T05:06:12;101209.31;;;18.90;100.00
48824;BME280;34640;53.590;10.054;2023-08-12T05:09:04;101206.75;;;18.93;100.00
48824;BME280;34640;53.590;10.054;2023-08-12T05:11:56;101208.66;;;18.97;100.00
48824;BME280;34640;53.590;10.054;2023-08-12T05:14:47;101198.22;;;19.02;100.00
48824;BME280;34640;53.590;10.054;2023-08-12T05:17:39;101198.31;;;19.05;100.00
48824;BME280;34640;53.590;10.054;2023-08-12T05:20:30;101193.91;;;19.04;100.00
48824;BME280;34640;53.590;10.054;2023-08-12T05:23:22;101199.19;;;19.04;100.00
48824;BME280;34640;53.590;10.054;2023-08-12T05:26:14;101206.34;;;19.08;100.00
48824;BME280;34640;53.590;10.054;2023-08-12T05:29:05;101218.03;;;19.14;100.00
48824;BME280;34640;53.590;10.054;2023-08-12T05:31:57;101218.81;;;19.12;100.00
48824;BME280;34640;53.590;10.054;2023-08-12T05:34:49;101220.34;;;19.05;100.00
48824;BME280;34640;53.590;10.054;2023-08-12T05:37:40;101225.66;;;19.07;100.00
48824;BME280;34640;53.590;10.054;2023-08-12T05:40:32;101222.00;;;19.02;100.00
48824;BME280;34640;53.590;10.054;2023-08-12T05:43:24;101217.50;;;18.99;100.00
48824;BME280;34640;53.590;10.054;2023-08-12T05:46:16;101222.09;;;19.05;100.00
48824;BME280;34640;53.590;10.054;2023-08-12T05:49:07;101227.28;;;19.02;100.00
48824;BME280;34640;53.590;10.054;2023-08-12T05:51:58;101237.63;;;18.96;100.00
48824;BME280;34640;53.590;10.054;2023-08-12T05:54:50;101240.88;;;18.87;100.00
48824;BME280;34640;53.590;10.054;2023-08-12T05:57:42;101243.34;;;18.82;100.00
48824;BME280;34640;53.590;10.054;2023-08-12T06:00:34;101235.38;;;18.81;100.00
48824;BME280;34640;53.590;10.054;2023-08-12T06:03:26;101242.34;;;18.79;100.00
48824;BME280;34640;53.590;10.054;2023-08-12T06:06:17;101237.84;;;18.76;100.00
48824;BME280;34640;53.590;10.054;2023-08-12T06:09:08;101237.97;;;18.79;100.00
48824;BME280;34640;53.590;10.054;2023-08-12T06:12:00;101239.81;;;18.82;100.00
48824;BME280;34640;53.590;10.054;2023-08-12T06:14:51;101244.22;;;18.83;100.00
48824;BME280;34640;53.590;10.054;2023-08-12T06:17:43;101243.34;;;18.82;100.00
48824;BME280;34640;53.590;10.054;2023-08-12T06:20:35;101252.16;;;18.83;100.00
48824;BME280;34640;53.590;10.054;2023-08-12T06:23:26;101249.34;;;18.78;100.00
48824;BME280;34640;53.590;10.054;2023-08-12T06:26:18;101248.50;;;18.79;100.00
48824;BME280;34640;53.590;10.054;2023-08-12T06:29:09;101244.13;;;18.80;100.00
48824;BME280;34640;53.590;10.054;2023-08-12T06:32:00;101244.09;;;18.78;100.00
48824;BME280;34640;53.590;10.054;2023-08-12T06:34:53;101241.28;;;18.74;100.00
48824;BME280;34640;53.590;10.054;2023-08-12T06:37:44;101245.66;;;18.73;100.00
48824;BME280;34640;53.590;10.054;2023-08-12T06:40:37;101250.94;;;18.73;100.00
48824;BME280;34640;53.590;10.054;2023-08-12T06:43:28;101239.44;;;18.71;100.00
48824;BME280;34640;53.590;10.054;2023-08-12T06:46:20;101240.50;;;18.76;100.00
48824;BME280;34640;53.590;10.054;2023-08-12T06:49:11;101238.75;;;18.77;100.00
48824;BME280;34640;53.590;10.054;2023-08-12T06:52:04;101237.91;;;18.78;100.00
48824;BME280;34640;53.590;10.054;2023-08-12T06:54:55;101224.81;;;18.81;100.00
48824;BME280;34640;53.590;10.054;2023-08-12T06:57:46;101216.16;;;18.85;100.00
48824;BME280;34640;53.590;10.054;2023-08-12T07:00:37;101226.00;;;18.89;100.00
48824;BME280;34640;53.590;10.054;2023-08-12T07:03:29;101225.19;;;18.91;100.00
48824;BME280;34640;53.590;10.054;2023-08-12T07:06:20;101214.69;;;18.93;100.00
48824;BME280;34640;53.590;10.054;2023-08-12T07:09:13;101209.53;;;18.98;100.00
48824;BME280;34640;53.590;10.054;2023-08-12T07:12:04;101215.81;;;19.01;100.00
48824;BME280;34640;53.590;10.054;2023-08-12T07:14:55;101222.25;;;19.09;100.00
48824;BME280;34640;53.590;10.054;2023-08-12T07:17:47;101216.31;;;19.16;100.00
48824;BME280;34640;53.590;10.054;2023-08-12T07:20:38;101215.53;;;19.19;100.00
48824;BME280;34640;53.590;10.054;2023-08-12T07:23:30;101214.75;;;19.23;100.00
48824;BME280;34640;53.590;10.054;2023-08-12T07:26:22;101207.88;;;19.28;100.00
48824;BME280;34640;53.590;10.054;2023-08-12T07:29:14;101208.09;;;19.34;100.00
48824;BME280;34640;53.590;10.054;2023-08-12T07:32:05;101204.81;;;19.43;100.00
48824;BME280;34640;53.590;10.054;2023-08-12T07:34:57;101202.47;;;19.52;100.00
48824;BME280;34640;53.590;10.054;2023-08-12T07:37:48;101200.88;;;19.56;100.00
48824;BME280;34640;53.590;10.054;2023-08-12T07:40:40;101204.44;;;19.58;100.00
48824;BME280;34640;53.590;10.054;2023-08-12T07:43:32;101202.81;;;19.63;100.00
48824;BME280;34640;53.590;10.054;2023-08-12T07:46:24;101206.53;;;19.69;100.00
48824;BME280;34640;53.590;10.054;2023-08-12T07:49:16;101209.38;;;19.75;100.00
48824;BME280;34640;53.590;10.054;2023-08-12T07:52:07;101206.19;;;19.87;100.00
48824;BME280;34640;53.590;10.054;2023-08-12T07:54:58;101210.19;;;20.03;100.00
48824;BME280;34640;53.590;10.054;2023-08-12T07:57:51;101207.00;;;20.16;100.00
48824;BME280;34640;53.590;10.054;2023-08-12T08:00:43;101207.16;;;20.21;100.00
48824;BME280;34640;53.590;10.054;2023-08-12T08:03:35;101199.44;;;20.28;100.00
48824;BME280;34640;53.590;10.054;2023-08-12T08:06:26;101198.72;;;20.35;100.00
48824;BME280;34640;53.590;10.054;2023-08-12T08:09:18;101205.84;;;20.38;100.00
48824;BME280;34640;53.590;10.054;2023-08-12T08:12:10;101211.22;;;20.39;100.00
48824;BME280;34640;53.590;10.054;2023-08-12T08:15:02;101219.41;;;20.49;100.00
48824;BME280;34640;53.590;10.054;2023-08-12T08:17:55;101207.19;;;20.54;100.00
48824;BME280;34640;53.590;10.054;2023-08-12T08:20:46;101207.88;;;20.45;100.00
48824;BME280;34640;53.590;10.054;2023-08-12T08:23:40;101205.53;;;20.57;100.00
48824;BME280;34640;53.590;10.054;2023-08-12T08:26:31;101204.00;;;20.65;100.00
48824;BME280;34640;53.590;10.054;2023-08-12T08:29:23;101206.03;;;20.77;100.00
48824;BME280;34640;53.590;10.054;2023-08-12T08:32:14;101197.28;;;20.80;100.00
48824;BME280;34640;53.590;10.054;2023-08-12T08:35:08;101203.47;;;20.80;100.00
48824;BME280;34640;53.590;10.054;2023-08-12T08:37:59;101203.69;;;20.88;100.00
48824;BME280;34640;53.590;10.054;2023-08-12T08:40:50;101210.94;;;20.96;100.00
48824;BME280;34640;53.590;10.054;2023-08-12T08:43:43;101207.53;;;21.02;100.00
48824;BME280;34640;53.590;10.054;2023-08-12T08:46:38;101205.75;;;21.01;100.00
48824;BME280;34640;53.590;10.054;2023-08-12T08:49:30;101209.03;;;20.91;100.00
48824;BME280;34640;53.590;10.054;2023-08-12T08:52:23;101209.13;;;20.94;100.00
48824;BME280;34640;53.590;10.054;2023-08-12T08:55:14;101196.25;;;21.09;100.00
48824;BME280;34640;53.590;10.054;2023-08-12T08:58:05;101200.59;;;21.43;100.00
48824;BME280;34640;53.590;10.054;2023-08-12T09:00:57;101195.06;;;21.72;100.00
48824;BME280;34640;53.590;10.054;2023-08-12T09:03:49;101195.28;;;21.82;100.00
48824;BME280;34640;53.590;10.054;2023-08-12T09:06:42;101190.09;;;21.88;100.00
48824;BME280;34640;53.590;10.054;2023-08-12T09:09:36;101183.91;;;21.88;100.00
48824;BME280;34640;53.590;10.054;2023-08-12T09:12:28;101181.34;;;21.91;100.00
48824;BME280;34640;53.590;10.054;2023-08-12T09:15:19;101183.97;;;21.91;100.00
48824;BME280;34640;53.590;10.054;2023-08-12T09:18:10;101180.31;;;21.86;100.00
48824;BME280;34640;53.590;10.054;2023-08-12T09:21:01;101178.78;;;21.97;100.00
48824;BME280;34640;53.590;10.054;2023-08-12T09:23:53;101176.16;;;21.97;100.00
48824;BME280;34640;53.590;10.054;2023-08-12T09:26:47;101174.31;;;21.93;100.00
48824;BME280;34640;53.590;10.054;2023-08-12T09:29:42;101175.06;;;21.89;100.00
48824;BME280;34640;53.590;10.054;2023-08-12T09:32:34;101173.38;;;21.91;100.00
48824;BME280;34640;53.590;10.054;2023-08-12T09:35:30;101164.63;;;21.95;100.00
48824;BME280;34640;53.590;10.054;2023-08-12T09:38:25;101171.31;;;21.78;100.00
48824;BME280;34640;53.590;10.054;2023-08-12T09:41:16;101165.09;;;21.76;100.00
48824;BME280;34640;53.590;10.054;2023-08-12T09:44:09;101169.50;;;21.75;100.00
48824;BME280;34640;53.590;10.054;2023-08-12T09:47:00;101169.13;;;21.57;100.00
48824;BME280;34640;53.590;10.054;2023-08-12T09:49:53;101169.22;;;21.61;100.00
48824;BME280;34640;53.590;10.054;2023-08-12T09:52:44;101179.84;;;21.63;100.00
48824;BME280;34640;53.590;10.054;2023-08-12T09:55:36;101174.41;;;21.57;100.00
48824;BME280;34640;53.590;10.054;2023-08-12T09:58:29;101173.50;;;21.55;100.00
48824;BME280;34640;53.590;10.054;2023-08-12T10:01:23;101169.97;;;21.56;100.00
48824;BME280;34640;53.590;10.054;2023-08-12T10:04:15;101168.94;;;21.48;100.00
48824;BME280;34640;53.590;10.054;2023-08-12T10:07:08;101159.97;;;21.44;100.00
48824;BME280;34640;53.590;10.054;2023-08-12T10:10:00;101155.72;;;21.49;100.00
48824;BME280;34640;53.590;10.054;2023-08-12T10:12:52;101165.38;;;21.47;100.00
48824;BME280;34640;53.590;10.054;2023-08-12T10:15:43;101165.41;;;21.49;100.00
48824;BME280;34640;53.590;10.054;2023-08-12T10:18:36;101161.00;;;21.49;100.00
48824;BME280;34640;53.590;10.054;2023-08-12T10:21:27;101157.44;;;21.47;100.00
48824;BME280;34640;53.590;10.054;2023-08-12T10:24:19;101158.38;;;21.51;100.00
48824;BME280;34640;53.590;10.054;2023-08-12T10:27:11;101161.25;;;21.61;100.00
48824;BME280;34640;53.590;10.054;2023-08-12T10:30:03;101160.44;;;21.65;100.00
48824;BME280;34640;53.590;10.054;2023-08-12T10:32:54;101157.78;;;21.65;100.00
48824;BME280;34640;53.590;10.054;2023-08-12T10:35:47;101153.72;;;21.81;100.00
48824;BME280;34640;53.590;10.054;2023-08-12T10:38:39;101152.06;;;21.88;100.00
48824;BME280;34640;53.590;10.054;2023-08-12T10:41:30;101147.75;;;21.91;100.00
48824;BME280;34640;53.590;10.054;2023-08-12T10:44:26;101138.03;;;21.92;100.00
48824;BME280;34640;53.590;10.054;2023-08-12T10:47:17;101131.59;;;21.79;100.00
48824;BME280;34640;53.590;10.054;2023-08-12T10:50:18;101132.38;;;21.75;100.00
48824;BME280;34640;53.590;10.054;2023-08-12T10:53:21;101119.16;;;21.77;100.00
48824;BME280;34640;53.590;10.054;2023-08-12T10:56:13;101115.63;;;21.78;100.00
48824;BME280;34640;53.590;10.054;2023-08-12T10:59:04;101107.84;;;21.87;100.00
48824;BME280;34640;53.590;10.054;2023-08-12T11:02:04;101111.66;;;22.01;100.00
48824;BME280;34640;53.590;10.054;2023-08-12T11:04:57;101096.31;;;22.32;100.00
48824;BME280;34640;53.590;10.054;2023-08-12T11:07:48;101080.66;;;22.45;100.00
48824;BME280;34640;53.590;10.054;2023-08-12T11:10:47;101075.59;;;22.61;100.00
48824;BME280;34640;53.590;10.054;2023-08-12T11:13:46;101083.06;;;22.83;100.00
48824;BME280;34640;53.590;10.054;2023-08-12T11:16:37;101079.84;;;23.05;100.00
48824;BME280;34640;53.590;10.054;2023-08-12T11:19:30;101083.41;;;23.07;100.00
48824;BME280;34640;53.590;10.054;2023-08-12T11:22:21;101079.09;;;23.17;100.00
48824;BME280;34640;53.590;10.054;2023-08-12T11:25:13;101076.44;;;23.18;100.00
48824;BME280;34640;53.590;10.054;2023-08-12T11:28:08;101077.00;;;22.95;100.00
48824;BME280;34640;53.590;10.054;2023-08-12T11:31:00;101077.66;;;22.78;100.00
48824;BME280;34640;53.590;10.054;2023-08-12T11:33:52;101085.44;;;22.68;100.00
48824;BME280;34640;53.590;10.054;2023-08-12T11:36:44;101079.00;;;22.53;100.00
48824;BME280;34640;53.590;10.054;2023-08-12T11:39:35;101081.44;;;22.40;100.00
48824;BME280;34640;53.590;10.054;2023-08-12T11:42:26;101086.50;;;22.26;100.00
48824;BME280;34640;53.590;10.054;2023-08-12T11:45:19;101087.19;;;22.13;100.00
48824;BME280;34640;53.590;10.054;2023-08-12T11:48:11;101080.69;;;21.99;100.00
48824;BME280;34640;53.590;10.054;2023-08-12T11:51:02;101080.56;;;21.91;100.00
48824;BME280;34640;53.590;10.054;2023-08-12T11:53:54;101082.16;;;21.84;100.00
48824;BME280;34640;53.590;10.054;2023-08-12T11:56:45;101087.44;;;21.83;100.00
48824;BME280;34640;53.590;10.054;2023-08-12T11:59:37;101082.97;;;21.79;100.00
48824;BME280;34640;53.590;10.054;2023-08-12T12:02:29;101080.84;;;21.62;100.00
48824;BME280;34640;53.590;10.054;2023-08-12T12:05:21;101089.31;;;21.45;100.00
48824;BME280;34640;53.590;10.054;2023-08-12T12:08:13;101086.41;;;21.31;100.00
48824;BME280;34640;53.590;10.054;2023-08-12T12:11:05;101083.59;;;21.25;100.00
48824;BME280;34640;53.590;10.054;2023-08-12T12:13:59;101071.13;;;21.21;100.00
48824;BME280;34640;53.590;10.054;2023-08-12T12:16:51;101068.41;;;21.18;100.00
48824;BME280;34640;53.590;10.054;2023-08-12T12:19:44;101061.31;;;21.15;100.00
48824;BME280;34640;53.590;10.054;2023-08-12T12:22:35;101063.09;;;21.16;100.00
48824;BME280;34640;53.590;10.054;2023-08-12T12:25:26;101055.91;;;21.11;100.00
48824;BME280;34640;53.590;10.054;2023-08-12T12:28:23;101033.88;;;21.13;100.00
48824;BME280;34640;53.590;10.054;2023-08-12T12:31:14;101008.19;;;21.09;100.00
48824;BME280;34640;53.590;10.054;2023-08-12T12:34:06;101008.94;;;21.03;100.00
48824;BME280;34640;53.590;10.054;2023-08-12T12:36:59;101017.72;;;21.01;100.00
48824;BME280;34640;53.590;10.054;2023-08-12T12:39:50;101033.75;;;21.07;100.00
48824;BME280;34640;53.590;10.054;2023-08-12T12:42:42;101029.47;;;21.14;100.00
48824;BME280;34640;53.590;10.054;2023-08-12T12:45:34;101025.38;;;21.26;100.00
48824;BME280;34640;53.590;10.054;2023-08-12T12:48:25;101029.25;;;21.44;100.00
48824;BME280;34640;53.590;10.054;2023-08-12T12:51:16;101027.75;;;21.58;100.00
48824;BME280;34640;53.590;10.054;2023-08-12T12:54:09;101031.41;;;21.64;100.00
48824;BME280;34640;53.590;10.054;2023-08-12T12:57:01;101033.97;;;21.60;100.00
48824;BME280;34640;53.590;10.054;2023-08-12T12:59:53;101030.16;;;21.46;100.00
48824;BME280;34640;53.590;10.054;2023-08-12T13:02:45;101026.34;;;21.30;100.00
48824;BME280;34640;53.590;10.054;2023-08-12T13:05:37;101020.03;;;21.25;100.00
48824;BME280;34640;53.590;10.054;2023-08-12T13:08:29;101018.34;;;21.28;100.00
48824;BME280;34640;53.590;10.054;2023-08-12T13:11:22;101016.56;;;21.27;100.00
48824;BME280;34640;53.590;10.054;2023-08-12T13:14:14;101017.31;;;21.23;100.00
48824;BME280;34640;53.590;10.054;2023-08-12T13:17:06;101021.59;;;21.17;100.00
48824;BME280;34640;53.590;10.054;2023-08-12T13:19:58;101020.53;;;21.07;100.00
48824;BME280;34640;53.590;10.054;2023-08-12T13:22:49;101023.16;;;21.07;100.00
48824;BME280;34640;53.590;10.054;2023-08-12T13:25:40;101017.84;;;21.05;100.00
48824;BME280;34640;53.590;10.054;2023-08-12T13:28:33;101023.16;;;21.05;100.00
48824;BME280;34640;53.590;10.054;2023-08-12T13:31:25;101030.19;;;21.05;100.00
48824;BME280;34640;53.590;10.054;2023-08-12T13:34:16;101017.88;;;21.07;100.00
48824;BME280;34640;53.590;10.054;2023-08-12T13:37:07;101014.41;;;21.10;100.00
48824;BME280;34640;53.590;10.054;2023-08-12T13:39:59;101021.47;;;21.11;100.00
48824;BME280;34640;53.590;10.054;2023-08-12T13:42:50;101018.94;;;21.17;100.00
48824;BME280;34640;53.590;10.054;2023-08-12T13:45:43;101014.44;;;21.13;100.00
48824;BME280;34640;53.590;10.054;2023-08-12T13:48:35;101013.34;;;21.03;100.00
48824;BME280;34640;53.590;10.054;2023-08-12T13:51:26;101023.47;;;20.82;100.00
48824;BME280;34640;53.590;10.054;2023-08-12T13:54:18;101013.34;;;20.62;100.00
48824;BME280;34640;53.590;10.054;2023-08-12T13:57:09;101023.84;;;20.59;100.00
48824;BME280;34640;53.590;10.054;2023-08-12T14:00:01;101017.69;;;20.60;100.00
48824;BME280;34640;53.590;10.054;2023-08-12T14:02:56;101020.34;;;20.60;100.00
48824;BME280;34640;53.590;10.054;2023-08-12T14:05:47;101026.38;;;20.55;100.00
48824;BME280;34640;53.590;10.054;2023-08-12T14:08:39;101015.81;;;20.55;100.00
48824;BME280;34640;53.590;10.054;2023-08-12T14:11:30;101022.09;;;20.60;100.00
48824;BME280;34640;53.590;10.054;2023-08-12T14:14:22;101015.38;;;20.74;100.00
48824;BME280;34640;53.590;10.054;2023-08-12T14:17:13;101013.06;;;20.89;100.00
48824;BME280;34640;53.590;10.054;2023-08-12T14:20:06;101014.03;;;20.93;100.00
48824;BME280;34640;53.590;10.054;2023-08-12T14:22:58;100996.38;;;20.93;100.00
48824;BME280;34640;53.590;10.054;2023-08-12T14:25:50;100997.25;;;20.92;100.00
48824;BME280;34640;53.590;10.054;2023-08-12T14:28:41;100991.09;;;20.93;100.00
48824;BME280;34640;53.590;10.054;2023-08-12T14:31:33;100984.03;;;20.94;100.00
48824;BME280;34640;53.590;10.054;2023-08-12T14:34:24;100974.19;;;20.87;100.00
48824;BME280;34640;53.590;10.054;2023-08-12T14:37:17;100976.78;;;20.84;100.00